sensor_id;sensor_type;location;lat;lon;timestamp;P1;durP1;ratioP1;P2;durP2;ratioP2
72611;SDS011;60655;52.182;4.474;2023-12-14T00:00:49;12.23;;;4.97;;
72611;SDS011;60655;52.182;4.474;2023-12-14T00:02:50;13.27;;;4.55;;
72611;SDS011;60655;52.182;4.474;2023-12-14T00:06:59;9.88;;;4.50;;
72611;SDS011;60655;52.182;4.474;2023-12-14T00:09:00;10.93;;;4.78;;
72611;SDS011;60655;52.182;4.474;2023-12-14T00:11:08;11.63;;;5.07;;
72611;SDS011;60655;52.182;4.474;2023-12-14T00:13:10;11.48;;;5.07;;
72611;SDS011;60655;52.182;4.474;2023-12-14T00:15:11;12.27;;;5.18;;
72611;SDS011;60655;52.182;4.474;2023-12-14T00:17:12;13.77;;;4.85;;
72611;SDS011;60655;52.182;4.474;2023-12-14T00:19:13;13.07;;;5.05;;
72611;SDS011;60655;52.182;4.474;2023-12-14T00:21:14;13.05;;;5.00;;
72611;SDS011;60655;52.182;4.474;2023-12-14T00:23:15;16.90;;;5.45;;
72611;SDS011;60655;52.182;4.474;2023-12-14T00:25:16;12.90;;;4.93;;
72611;SDS011;60655;52.182;4.474;2023-12-14T00:27:17;14.70;;;5.22;;
72611;SDS011;60655;52.182;4.474;2023-12-14T00:29:18;16.02;;;5.68;;
72611;SDS011;60655;52.182;4.474;2023-12-14T00:31:18;14.48;;;5.20;;
72611;SDS011;60655;52.182;4.474;2023-12-14T00:33:19;13.60;;;5.10;;
72611;SDS011;60655;52.182;4.474;2023-12-14T00:35:20;13.45;;;5.43;;
72611;SDS011;60655;52.182;4.474;2023-12-14T00:37:21;14.40;;;5.72;;
72611;SDS011;60655;52.182;4.474;2023-12-14T00:39:22;15.20;;;5.68;;
72611;SDS011;60655;52.182;4.474;2023-12-14T00:41:23;17.98;;;5.72;;
72611;SDS011;60655;52.182;4.474;2023-12-14T00:43:24;14.00;;;5.88;;
72611;SDS011;60655;52.182;4.474;2023-12-14T00:45:25;11.35;;;4.60;;
72611;SDS011;60655;52.182;4.474;2023-12-14T00:47:26;14.25;;;5.80;;
72611;SDS011;60655;52.182;4.474;2023-12-14T00:49:27;15.27;;;5.85;;
72611;SDS011;60655;52.182;4.474;2023-12-14T00:51:29;12.40;;;5.25;;
72611;SDS011;60655;52.182;4.474;2023-12-14T00:55:30;13.75;;;5.07;;
72611;SDS011;60655;52.182;4.474;2023-12-14T00:57:31;14.13;;;5.68;;
72611;SDS011;60655;52.182;4.474;2023-12-14T00:59:32;16.83;;;6.07;;
72611;SDS011;60655;52.182;4.474;2023-12-14T01:03:34;14.35;;;5.30;;
72611;SDS011;60655;52.182;4.474;2023-12-14T01:05:34;12.20;;;4.72;;
72611;SDS011;60655;52.182;4.474;2023-12-14T01:07:35;13.93;;;5.40;;
72611;SDS011;60655;52.182;4.474;2023-12-14T01:09:36;15.20;;;6.35;;
72611;SDS011;60655;52.182;4.474;2023-12-14T01:11:37;14.38;;;5.95;;
72611;SDS011;60655;52.182;4.474;2023-12-14T01:13:39;16.67;;;5.65;;
72611;SDS011;60655;52.182;4.474;2023-12-14T01:15:40;19.08;;;5.82;;
72611;SDS011;60655;52.182;4.474;2023-12-14T01:17:41;16.02;;;6.00;;
72611;SDS011;60655;52.182;4.474;2023-12-14T01:19:42;16.52;;;6.25;;
72611;SDS011;60655;52.182;4.474;2023-12-14T01:21:43;16.17;;;5.80;;
72611;SDS011;60655;52.182;4.474;2023-12-14T01:23:44;15.32;;;5.72;;
72611;SDS011;60655;52.182;4.474;2023-12-14T01:27:46;17.35;;;5.93;;
72611;SDS011;60655;52.182;4.474;2023-12-14T01:29:47;13.23;;;5.43;;
72611;SDS011;60655;52.182;4.474;2023-12-14T01:31:47;18.88;;;6.30;;
72611;SDS011;60655;52.182;4.474;2023-12-14T01:33:50;14.20;;;6.18;;
72611;SDS011;60655;52.182;4.474;2023-12-14T01:35:51;16.00;;;5.85;;
72611;SDS011;60655;52.182;4.474;2023-12-14T01:37:52;14.82;;;5.82;;
72611;SDS011;60655;52.182;4.474;2023-12-14T01:41:55;11.88;;;4.80;;
72611;SDS011;60655;52.182;4.474;2023-12-14T01:43:56;14.07;;;5.35;;
72611;SDS011;60655;52.182;4.474;2023-12-14T01:45:57;15.98;;;5.05;;
72611;SDS011;60655;52.182;4.474;2023-12-14T01:47:58;15.43;;;6.13;;
72611;SDS011;60655;52.182;4.474;2023-12-14T01:49:59;17.10;;;5.63;;
72611;SDS011;60655;52.182;4.474;2023-12-14T01:52:00;17.13;;;5.88;;
72611;SDS011;60655;52.182;4.474;2023-12-14T01:54:01;17.45;;;5.60;;
72611;SDS011;60655;52.182;4.474;2023-12-14T01:56:03;15.45;;;5.90;;
72611;SDS011;60655;52.182;4.474;2023-12-14T01:58:04;16.60;;;5.80;;
72611;SDS011;60655;52.182;4.474;2023-12-14T02:00:05;18.13;;;6.65;;
72611;SDS011;60655;52.182;4.474;2023-12-14T02:02:09;16.42;;;5.40;;
72611;SDS011;60655;52.182;4.474;2023-12-14T02:04:10;15.15;;;5.80;;
72611;SDS011;60655;52.182;4.474;2023-12-14T02:06:12;14.40;;;5.47;;
72611;SDS011;60655;52.182;4.474;2023-12-14T02:08:13;13.07;;;4.85;;
72611;SDS011;60655;52.182;4.474;2023-12-14T02:10:14;11.85;;;5.00;;
72611;SDS011;60655;52.182;4.474;2023-12-14T02:12:15;14.13;;;4.53;;
72611;SDS011;60655;52.182;4.474;2023-12-14T02:14:16;15.68;;;5.80;;
72611;SDS011;60655;52.182;4.474;2023-12-14T02:16:17;12.38;;;4.65;;
72611;SDS011;60655;52.182;4.474;2023-12-14T02:20:18;11.18;;;4.60;;
72611;SDS011;60655;52.182;4.474;2023-12-14T02:22:19;16.73;;;5.43;;
72611;SDS011;60655;52.182;4.474;2023-12-14T02:24:20;13.70;;;4.82;;
72611;SDS011;60655;52.182;4.474;2023-12-14T02:26:21;15.10;;;5.32;;
72611;SDS011;60655;52.182;4.474;2023-12-14T02:28:22;12.07;;;4.40;;
72611;SDS011;60655;52.182;4.474;2023-12-14T02:30:23;14.18;;;4.70;;
72611;SDS011;60655;52.182;4.474;2023-12-14T02:32:24;14.82;;;4.70;;
72611;SDS011;60655;52.182;4.474;2023-12-14T02:34:25;11.20;;;4.65;;
72611;SDS011;60655;52.182;4.474;2023-12-14T02:36:26;16.83;;;5.10;;
72611;SDS011;60655;52.182;4.474;2023-12-14T02:38:27;15.68;;;5.05;;
72611;SDS011;60655;52.182;4.474;2023-12-14T02:40:28;15.48;;;4.43;;
72611;SDS011;60655;52.182;4.474;2023-12-14T02:42:29;15.82;;;5.35;;
72611;SDS011;60655;52.182;4.474;2023-12-14T02:44:30;15.23;;;4.75;;
72611;SDS011;60655;52.182;4.474;2023-12-14T02:46:31;11.45;;;4.43;;
72611;SDS011;60655;52.182;4.474;2023-12-14T02:48:32;14.50;;;5.18;;
72611;SDS011;60655;52.182;4.474;2023-12-14T02:50:32;11.88;;;4.57;;
72611;SDS011;60655;52.182;4.474;2023-12-14T02:52:33;12.45;;;4.65;;
72611;SDS011;60655;52.182;4.474;2023-12-14T02:54:35;17.30;;;4.35;;
72611;SDS011;60655;52.182;4.474;2023-12-14T02:56:38;11.98;;;4.38;;
72611;SDS011;60655;52.182;4.474;2023-12-14T02:58:39;11.38;;;4.53;;
72611;SDS011;60655;52.182;4.474;2023-12-14T03:00:40;10.45;;;4.13;;
72611;SDS011;60655;52.182;4.474;2023-12-14T03:02:41;16.73;;;4.35;;
72611;SDS011;60655;52.182;4.474;2023-12-14T03:04:42;12.73;;;4.40;;
72611;SDS011;60655;52.182;4.474;2023-12-14T03:06:42;11.98;;;4.18;;
72611;SDS011;60655;52.182;4.474;2023-12-14T03:08:43;13.52;;;4.75;;
72611;SDS011;60655;52.182;4.474;2023-12-14T03:10:45;11.48;;;4.15;;
72611;SDS011;60655;52.182;4.474;2023-12-14T03:12:45;10.90;;;4.53;;
72611;SDS011;60655;52.182;4.474;2023-12-14T03:14:46;11.77;;;4.32;;
72611;SDS011;60655;52.182;4.474;2023-12-14T03:16:47;14.25;;;4.18;;
72611;SDS011;60655;52.182;4.474;2023-12-14T03:18:49;10.20;;;3.50;;
72611;SDS011;60655;52.182;4.474;2023-12-14T03:20:53;11.85;;;3.97;;
72611;SDS011;60655;52.182;4.474;2023-12-14T03:22:54;10.75;;;3.70;;
72611;SDS011;60655;52.182;4.474;2023-12-14T03:24:55;13.13;;;4.13;;
72611;SDS011;60655;52.182;4.474;2023-12-14T03:26:56;17.52;;;3.90;;
72611;SDS011;60655;52.182;4.474;2023-12-14T03:28:57;10.95;;;4.03;;
72611;SDS011;60655;52.182;4.474;2023-12-14T03:30:58;11.55;;;3.35;;
72611;SDS011;60655;52.182;4.474;2023-12-14T03:32:59;12.55;;;3.47;;
72611;SDS011;60655;52.182;4.474;2023-12-14T03:35:00;9.32;;;3.88;;
72611;SDS011;60655;52.182;4.474;2023-12-14T03:37:01;11.15;;;3.63;;
72611;SDS011;60655;52.182;4.474;2023-12-14T03:39:01;11.52;;;3.90;;
72611;SDS011;60655;52.182;4.474;2023-12-14T03:41:02;8.88;;;3.83;;
72611;SDS011;60655;52.182;4.474;2023-12-14T03:43:03;10.05;;;3.55;;
72611;SDS011;60655;52.182;4.474;2023-12-14T03:45:05;13.75;;;3.95;;
72611;SDS011;60655;52.182;4.474;2023-12-14T03:47:06;11.73;;;3.60;;
72611;SDS011;60655;52.182;4.474;2023-12-14T03:49:07;12.05;;;3.45;;
72611;SDS011;60655;52.182;4.474;2023-12-14T03:51:09;10.38;;;3.15;;
72611;SDS011;60655;52.182;4.474;2023-12-14T03:53:10;10.77;;;2.95;;
72611;SDS011;60655;52.182;4.474;2023-12-14T03:55:11;13.00;;;3.40;;
72611;SDS011;60655;52.182;4.474;2023-12-14T03:57:12;12.82;;;3.42;;
72611;SDS011;60655;52.182;4.474;2023-12-14T03:59:13;8.85;;;3.03;;
72611;SDS011;60655;52.182;4.474;2023-12-14T04:01:17;9.77;;;3.33;;
72611;SDS011;60655;52.182;4.474;2023-12-14T04:03:19;7.55;;;2.85;;
72611;SDS011;60655;52.182;4.474;2023-12-14T04:05:19;11.85;;;3.08;;
72611;SDS011;60655;52.182;4.474;2023-12-14T04:07:20;10.25;;;3.22;;
72611;SDS011;60655;52.182;4.474;2023-12-14T04:09:22;9.38;;;3.05;;
72611;SDS011;60655;52.182;4.474;2023-12-14T04:11:23;9.10;;;2.38;;
72611;SDS011;60655;52.182;4.474;2023-12-14T04:13:24;7.82;;;2.40;;
72611;SDS011;60655;52.182;4.474;2023-12-14T04:15:25;11.23;;;2.78;;
72611;SDS011;60655;52.182;4.474;2023-12-14T04:17:26;9.35;;;2.72;;
72611;SDS011;60655;52.182;4.474;2023-12-14T04:19:27;13.25;;;2.75;;
72611;SDS011;60655;52.182;4.474;2023-12-14T04:21:28;10.88;;;3.13;;
72611;SDS011;60655;52.182;4.474;2023-12-14T04:23:29;7.07;;;2.60;;
72611;SDS011;60655;52.182;4.474;2023-12-14T04:25:30;7.95;;;2.70;;
72611;SDS011;60655;52.182;4.474;2023-12-14T04:27:30;10.55;;;2.90;;
72611;SDS011;60655;52.182;4.474;2023-12-14T04:29:31;9.50;;;2.53;;
72611;SDS011;60655;52.182;4.474;2023-12-14T04:31:33;8.40;;;2.25;;
72611;SDS011;60655;52.182;4.474;2023-12-14T04:33:34;9.23;;;3.08;;
72611;SDS011;60655;52.182;4.474;2023-12-14T04:35:35;6.80;;;2.50;;
72611;SDS011;60655;52.182;4.474;2023-12-14T04:37:37;11.00;;;2.67;;
72611;SDS011;60655;52.182;4.474;2023-12-14T04:39:38;7.55;;;2.75;;
72611;SDS011;60655;52.182;4.474;2023-12-14T04:41:38;9.70;;;2.97;;
72611;SDS011;60655;52.182;4.474;2023-12-14T04:43:39;8.10;;;2.85;;
72611;SDS011;60655;52.182;4.474;2023-12-14T04:45:40;14.35;;;2.95;;
72611;SDS011;60655;52.182;4.474;2023-12-14T04:47:41;11.65;;;3.17;;
72611;SDS011;60655;52.182;4.474;2023-12-14T04:49:42;8.05;;;2.78;;
72611;SDS011;60655;52.182;4.474;2023-12-14T04:51:43;7.38;;;2.63;;
72611;SDS011;60655;52.182;4.474;2023-12-14T04:53:44;9.63;;;2.70;;
72611;SDS011;60655;52.182;4.474;2023-12-14T04:55:45;5.50;;;2.45;;
72611;SDS011;60655;52.182;4.474;2023-12-14T04:57:46;9.05;;;2.47;;
72611;SDS011;60655;52.182;4.474;2023-12-14T04:59:49;6.50;;;2.53;;
72611;SDS011;60655;52.182;4.474;2023-12-14T05:03:51;7.10;;;2.38;;
72611;SDS011;60655;52.182;4.474;2023-12-14T05:05:52;8.60;;;2.42;;
72611;SDS011;60655;52.182;4.474;2023-12-14T05:07:52;14.23;;;2.90;;
72611;SDS011;60655;52.182;4.474;2023-12-14T05:09:54;5.72;;;2.33;;
72611;SDS011;60655;52.182;4.474;2023-12-14T05:11:55;8.55;;;2.85;;
72611;SDS011;60655;52.182;4.474;2023-12-14T05:13:56;9.35;;;2.67;;
72611;SDS011;60655;52.182;4.474;2023-12-14T05:17:58;6.68;;;2.40;;
72611;SDS011;60655;52.182;4.474;2023-12-14T05:22:00;6.40;;;2.17;;
72611;SDS011;60655;52.182;4.474;2023-12-14T05:24:01;11.13;;;2.20;;
72611;SDS011;60655;52.182;4.474;2023-12-14T05:26:03;14.75;;;2.67;;
72611;SDS011;60655;52.182;4.474;2023-12-14T05:28:04;7.15;;;2.70;;
72611;SDS011;60655;52.182;4.474;2023-12-14T05:30:05;8.70;;;2.40;;
72611;SDS011;60655;52.182;4.474;2023-12-14T05:32:07;7.65;;;2.53;;
72611;SDS011;60655;52.182;4.474;2023-12-14T05:34:08;6.50;;;2.20;;
72611;SDS011;60655;52.182;4.474;2023-12-14T05:36:09;9.45;;;3.05;;
72611;SDS011;60655;52.182;4.474;2023-12-14T05:38:11;7.28;;;2.60;;
72611;SDS011;60655;52.182;4.474;2023-12-14T05:40:12;8.75;;;2.88;;
72611;SDS011;60655;52.182;4.474;2023-12-14T05:42:15;9.05;;;2.80;;
72611;SDS011;60655;52.182;4.474;2023-12-14T05:44:18;9.05;;;2.42;;
72611;SDS011;60655;52.182;4.474;2023-12-14T05:46:22;8.63;;;2.63;;
72611;SDS011;60655;52.182;4.474;2023-12-14T05:48:23;8.48;;;2.70;;
72611;SDS011;60655;52.182;4.474;2023-12-14T05:50:24;10.18;;;2.50;;
72611;SDS011;60655;52.182;4.474;2023-12-14T05:52:25;7.55;;;2.65;;
72611;SDS011;60655;52.182;4.474;2023-12-14T05:56:27;7.65;;;2.63;;
72611;SDS011;60655;52.182;4.474;2023-12-14T05:58:28;8.52;;;2.80;;
72611;SDS011;60655;52.182;4.474;2023-12-14T06:00:29;8.38;;;2.65;;
72611;SDS011;60655;52.182;4.474;2023-12-14T06:04:32;7.85;;;2.67;;
72611;SDS011;60655;52.182;4.474;2023-12-14T06:06:33;7.68;;;2.80;;
72611;SDS011;60655;52.182;4.474;2023-12-14T06:08:34;9.13;;;3.00;;
72611;SDS011;60655;52.182;4.474;2023-12-14T06:10:34;11.52;;;2.85;;
72611;SDS011;60655;52.182;4.474;2023-12-14T06:12:35;9.20;;;3.22;;
72611;SDS011;60655;52.182;4.474;2023-12-14T06:14:36;8.75;;;3.25;;
72611;SDS011;60655;52.182;4.474;2023-12-14T06:16:37;8.90;;;3.13;;
72611;SDS011;60655;52.182;4.474;2023-12-14T06:18:39;8.45;;;3.20;;
72611;SDS011;60655;52.182;4.474;2023-12-14T06:20:42;10.55;;;4.18;;
72611;SDS011;60655;52.182;4.474;2023-12-14T06:22:43;11.00;;;3.83;;
72611;SDS011;60655;52.182;4.474;2023-12-14T06:24:44;9.75;;;3.80;;
72611;SDS011;60655;52.182;4.474;2023-12-14T06:26:45;11.60;;;3.22;;
72611;SDS011;60655;52.182;4.474;2023-12-14T06:28:46;8.38;;;3.20;;
72611;SDS011;60655;52.182;4.474;2023-12-14T06:30:47;10.23;;;3.85;;
72611;SDS011;60655;52.182;4.474;2023-12-14T06:32:47;10.98;;;3.50;;
72611;SDS011;60655;52.182;4.474;2023-12-14T06:34:50;8.88;;;3.53;;
72611;SDS011;60655;52.182;4.474;2023-12-14T06:36:51;8.00;;;3.60;;
72611;SDS011;60655;52.182;4.474;2023-12-14T06:38:52;11.05;;;3.78;;
72611;SDS011;60655;52.182;4.474;2023-12-14T06:40:53;9.63;;;3.60;;
72611;SDS011;60655;52.182;4.474;2023-12-14T06:42:53;9.18;;;4.05;;
72611;SDS011;60655;52.182;4.474;2023-12-14T06:44:54;11.88;;;3.90;;
72611;SDS011;60655;52.182;4.474;2023-12-14T06:46:55;9.27;;;3.53;;
72611;SDS011;60655;52.182;4.474;2023-12-14T06:48:58;9.05;;;3.22;;
72611;SDS011;60655;52.182;4.474;2023-12-14T06:50:59;13.23;;;3.92;;
72611;SDS011;60655;52.182;4.474;2023-12-14T06:53:00;9.18;;;3.90;;
72611;SDS011;60655;52.182;4.474;2023-12-14T06:55:01;11.57;;;3.72;;
72611;SDS011;60655;52.182;4.474;2023-12-14T06:57:02;10.18;;;3.58;;
72611;SDS011;60655;52.182;4.474;2023-12-14T06:59:03;10.43;;;3.95;;
72611;SDS011;60655;52.182;4.474;2023-12-14T07:01:04;8.70;;;3.58;;
72611;SDS011;60655;52.182;4.474;2023-12-14T07:03:05;10.20;;;3.97;;
72611;SDS011;60655;52.182;4.474;2023-12-14T07:05:06;10.75;;;3.80;;
72611;SDS011;60655;52.182;4.474;2023-12-14T07:07:07;8.23;;;3.75;;
72611;SDS011;60655;52.182;4.474;2023-12-14T07:09:08;8.57;;;3.63;;
72611;SDS011;60655;52.182;4.474;2023-12-14T07:11:09;11.07;;;3.95;;
72611;SDS011;60655;52.182;4.474;2023-12-14T07:13:12;12.00;;;4.13;;
72611;SDS011;60655;52.182;4.474;2023-12-14T07:15:13;11.32;;;4.05;;
72611;SDS011;60655;52.182;4.474;2023-12-14T07:17:14;12.50;;;4.40;;
72611;SDS011;60655;52.182;4.474;2023-12-14T07:19:15;10.60;;;3.90;;
72611;SDS011;60655;52.182;4.474;2023-12-14T07:21:16;9.93;;;3.78;;
72611;SDS011;60655;52.182;4.474;2023-12-14T07:23:17;12.35;;;4.15;;
72611;SDS011;60655;52.182;4.474;2023-12-14T07:25:18;10.48;;;3.58;;
72611;SDS011;60655;52.182;4.474;2023-12-14T07:27:19;15.20;;;4.40;;
72611;SDS011;60655;52.182;4.474;2023-12-14T07:29:20;8.50;;;3.75;;
72611;SDS011;60655;52.182;4.474;2023-12-14T07:31:21;10.10;;;4.07;;
72611;SDS011;60655;52.182;4.474;2023-12-14T07:33:21;15.60;;;6.13;;
72611;SDS011;60655;52.182;4.474;2023-12-14T07:35:22;16.42;;;6.75;;
72611;SDS011;60655;52.182;4.474;2023-12-14T07:37:23;12.10;;;4.35;;
72611;SDS011;60655;52.182;4.474;2023-12-14T07:39:24;9.02;;;3.65;;
72611;SDS011;60655;52.182;4.474;2023-12-14T07:41:26;11.70;;;4.32;;
72611;SDS011;60655;52.182;4.474;2023-12-14T07:43:30;13.52;;;3.95;;
72611;SDS011;60655;52.182;4.474;2023-12-14T07:45:31;12.75;;;4.28;;
72611;SDS011;60655;52.182;4.474;2023-12-14T07:47:32;10.93;;;4.40;;
72611;SDS011;60655;52.182;4.474;2023-12-14T07:49:32;9.07;;;4.10;;
72611;SDS011;60655;52.182;4.474;2023-12-14T07:51:33;14.07;;;4.60;;
72611;SDS011;60655;52.182;4.474;2023-12-14T07:53:34;12.98;;;4.50;;
72611;SDS011;60655;52.182;4.474;2023-12-14T07:55:35;12.13;;;4.53;;
72611;SDS011;60655;52.182;4.474;2023-12-14T07:59:37;11.43;;;3.83;;
72611;SDS011;60655;52.182;4.474;2023-12-14T08:01:38;9.98;;;4.30;;
72611;SDS011;60655;52.182;4.474;2023-12-14T08:03:39;11.80;;;4.20;;
72611;SDS011;60655;52.182;4.474;2023-12-14T08:05:40;11.00;;;4.45;;
72611;SDS011;60655;52.182;4.474;2023-12-14T08:07:41;10.32;;;4.68;;
72611;SDS011;60655;52.182;4.474;2023-12-14T08:09:41;20.45;;;4.97;;
72611;SDS011;60655;52.182;4.474;2023-12-14T08:11:42;14.32;;;4.00;;
72611;SDS011;60655;52.182;4.474;2023-12-14T08:13:43;11.90;;;4.53;;
72611;SDS011;60655;52.182;4.474;2023-12-14T08:15:44;11.18;;;3.97;;
72611;SDS011;60655;52.182;4.474;2023-12-14T08:17:45;14.45;;;4.72;;
72611;SDS011;60655;52.182;4.474;2023-12-14T08:19:46;10.98;;;4.63;;
72611;SDS011;60655;52.182;4.474;2023-12-14T08:21:48;14.02;;;4.68;;
72611;SDS011;60655;52.182;4.474;2023-12-14T08:23:49;12.60;;;4.82;;
72611;SDS011;60655;52.182;4.474;2023-12-14T08:25:50;14.68;;;5.07;;
72611;SDS011;60655;52.182;4.474;2023-12-14T08:27:51;12.60;;;4.22;;
72611;SDS011;60655;52.182;4.474;2023-12-14T08:29:52;13.10;;;4.47;;
72611;SDS011;60655;52.182;4.474;2023-12-14T08:31:53;11.18;;;4.35;;
72611;SDS011;60655;52.182;4.474;2023-12-14T08:33:57;13.18;;;4.57;;
72611;SDS011;60655;52.182;4.474;2023-12-14T08:35:58;13.80;;;5.05;;
72611;SDS011;60655;52.182;4.474;2023-12-14T08:37:59;17.60;;;5.07;;
72611;SDS011;60655;52.182;4.474;2023-12-14T08:40:00;14.50;;;5.60;;
72611;SDS011;60655;52.182;4.474;2023-12-14T08:42:01;13.95;;;5.35;;
72611;SDS011;60655;52.182;4.474;2023-12-14T08:44:02;12.40;;;4.80;;
72611;SDS011;60655;52.182;4.474;2023-12-14T08:46:03;19.30;;;6.35;;
72611;SDS011;60655;52.182;4.474;2023-12-14T08:50:05;14.38;;;5.28;;
72611;SDS011;60655;52.182;4.474;2023-12-14T08:52:06;16.35;;;5.45;;
72611;SDS011;60655;52.182;4.474;2023-12-14T08:54:08;14.65;;;5.35;;
72611;SDS011;60655;52.182;4.474;2023-12-14T08:56:09;15.35;;;5.47;;
72611;SDS011;60655;52.182;4.474;2023-12-14T08:58:10;14.77;;;5.57;;
72611;SDS011;60655;52.182;4.474;2023-12-14T09:00:12;16.40;;;5.35;;
72611;SDS011;60655;52.182;4.474;2023-12-14T09:02:13;13.07;;;5.53;;
72611;SDS011;60655;52.182;4.474;2023-12-14T09:04:14;13.10;;;5.15;;
72611;SDS011;60655;52.182;4.474;2023-12-14T09:06:16;14.10;;;5.72;;
72611;SDS011;60655;52.182;4.474;2023-12-14T09:08:17;15.80;;;5.57;;
72611;SDS011;60655;52.182;4.474;2023-12-14T09:12:19;11.80;;;4.50;;
72611;SDS011;60655;52.182;4.474;2023-12-14T09:14:20;17.55;;;5.57;;
72611;SDS011;60655;52.182;4.474;2023-12-14T09:16:21;13.02;;;5.00;;
72611;SDS011;60655;52.182;4.474;2023-12-14T09:18:22;14.07;;;4.53;;
72611;SDS011;60655;52.182;4.474;2023-12-14T09:20:24;11.65;;;3.72;;
72611;SDS011;60655;52.182;4.474;2023-12-14T09:22:27;10.38;;;4.20;;
72611;SDS011;60655;52.182;4.474;2023-12-14T09:24:28;10.15;;;3.95;;
72611;SDS011;60655;52.182;4.474;2023-12-14T09:26:30;15.02;;;4.88;;
72611;SDS011;60655;52.182;4.474;2023-12-14T09:28:30;11.50;;;3.80;;
72611;SDS011;60655;52.182;4.474;2023-12-14T09:30:32;11.23;;;4.70;;
72611;SDS011;60655;52.182;4.474;2023-12-14T09:34:34;11.18;;;3.45;;
72611;SDS011;60655;52.182;4.474;2023-12-14T09:36:34;9.93;;;3.88;;
72611;SDS011;60655;52.182;4.474;2023-12-14T09:38:35;10.93;;;4.07;;
72611;SDS011;60655;52.182;4.474;2023-12-14T09:40:37;10.55;;;4.35;;
72611;SDS011;60655;52.182;4.474;2023-12-14T09:42:38;11.40;;;4.75;;
72611;SDS011;60655;52.182;4.474;2023-12-14T09:44:42;12.20;;;4.65;;
72611;SDS011;60655;52.182;4.474;2023-12-14T09:46:44;15.27;;;4.93;;
72611;SDS011;60655;52.182;4.474;2023-12-14T09:48:49;13.48;;;4.25;;
72611;SDS011;60655;52.182;4.474;2023-12-14T09:50:51;11.70;;;4.20;;
72611;SDS011;60655;52.182;4.474;2023-12-14T09:52:52;10.63;;;4.13;;
72611;SDS011;60655;52.182;4.474;2023-12-14T09:54:53;11.27;;;4.07;;
72611;SDS011;60655;52.182;4.474;2023-12-14T09:56:54;14.13;;;4.75;;
72611;SDS011;60655;52.182;4.474;2023-12-14T09:58:55;14.65;;;4.15;;
72611;SDS011;60655;52.182;4.474;2023-12-14T10:00:58;11.50;;;4.43;;
72611;SDS011;60655;52.182;4.474;2023-12-14T10:05:26;14.30;;;4.30;;
72611;SDS011;60655;52.182;4.474;2023-12-14T10:07:28;14.75;;;4.20;;
72611;SDS011;60655;52.182;4.474;2023-12-14T10:09:31;12.95;;;5.32;;
72611;SDS011;60655;52.182;4.474;2023-12-14T10:11:32;10.88;;;4.65;;
72611;SDS011;60655;52.182;4.474;2023-12-14T10:13:37;11.02;;;4.50;;
72611;SDS011;60655;52.182;4.474;2023-12-14T10:15:46;12.50;;;4.50;;
72611;SDS011;60655;52.182;4.474;2023-12-14T10:17:51;11.57;;;4.88;;
72611;SDS011;60655;52.182;4.474;2023-12-14T10:19:56;9.52;;;4.32;;
72611;SDS011;60655;52.182;4.474;2023-12-14T10:21:58;13.32;;;4.32;;
72611;SDS011;60655;52.182;4.474;2023-12-14T10:24:02;14.75;;;4.63;;
72611;SDS011;60655;52.182;4.474;2023-12-14T10:28:05;9.18;;;3.22;;
72611;SDS011;60655;52.182;4.474;2023-12-14T10:30:07;11.65;;;4.00;;
72611;SDS011;60655;52.182;4.474;2023-12-14T10:32:09;14.25;;;4.43;;
72611;SDS011;60655;52.182;4.474;2023-12-14T10:34:11;12.75;;;4.20;;
72611;SDS011;60655;52.182;4.474;2023-12-14T10:36:17;13.82;;;4.00;;
72611;SDS011;60655;52.182;4.474;2023-12-14T10:38:20;9.57;;;3.42;;
72611;SDS011;60655;52.182;4.474;2023-12-14T10:40:23;10.57;;;4.18;;
72611;SDS011;60655;52.182;4.474;2023-12-14T10:42:26;10.45;;;4.05;;
72611;SDS011;60655;52.182;4.474;2023-12-14T10:44:28;9.98;;;3.47;;
72611;SDS011;60655;52.182;4.474;2023-12-14T10:46:32;12.73;;;5.07;;
72611;SDS011;60655;52.182;4.474;2023-12-14T10:48:35;12.20;;;4.05;;
72611;SDS011;60655;52.182;4.474;2023-12-14T10:50:37;11.07;;;4.53;;
72611;SDS011;60655;52.182;4.474;2023-12-14T10:52:39;14.43;;;3.97;;
72611;SDS011;60655;52.182;4.474;2023-12-14T10:54:41;9.93;;;3.95;;
72611;SDS011;60655;52.182;4.474;2023-12-14T10:56:42;9.35;;;4.00;;
72611;SDS011;60655;52.182;4.474;2023-12-14T10:58:47;11.40;;;4.18;;
72611;SDS011;60655;52.182;4.474;2023-12-14T11:00:58;12.68;;;4.65;;
72611;SDS011;60655;52.182;4.474;2023-12-14T11:03:03;10.85;;;3.80;;
72611;SDS011;60655;52.182;4.474;2023-12-14T11:05:05;12.38;;;3.92;;
72611;SDS011;60655;52.182;4.474;2023-12-14T11:07:10;11.02;;;4.10;;
72611;SDS011;60655;52.182;4.474;2023-12-14T11:09:11;13.23;;;4.28;;
72611;SDS011;60655;52.182;4.474;2023-12-14T11:11:15;14.02;;;4.63;;
72611;SDS011;60655;52.182;4.474;2023-12-14T11:13:20;10.70;;;4.50;;
72611;SDS011;60655;52.182;4.474;2023-12-14T11:15:22;10.93;;;4.03;;
72611;SDS011;60655;52.182;4.474;2023-12-14T11:17:24;11.80;;;4.20;;
72611;SDS011;60655;52.182;4.474;2023-12-14T11:19:25;10.27;;;4.05;;
72611;SDS011;60655;52.182;4.474;2023-12-14T11:21:30;10.57;;;3.90;;
72611;SDS011;60655;52.182;4.474;2023-12-14T11:23:40;11.10;;;4.07;;
72611;SDS011;60655;52.182;4.474;2023-12-14T11:25:41;12.90;;;4.72;;
72611;SDS011;60655;52.182;4.474;2023-12-14T11:27:42;11.93;;;4.05;;
72611;SDS011;60655;52.182;4.474;2023-12-14T11:29:44;11.98;;;4.55;;
72611;SDS011;60655;52.182;4.474;2023-12-14T11:31:45;10.50;;;4.25;;
72611;SDS011;60655;52.182;4.474;2023-12-14T11:35:48;12.15;;;4.07;;
72611;SDS011;60655;52.182;4.474;2023-12-14T11:37:51;10.77;;;4.22;;
72611;SDS011;60655;52.182;4.474;2023-12-14T11:39:53;13.85;;;4.18;;
72611;SDS011;60655;52.182;4.474;2023-12-14T11:42:01;14.07;;;4.55;;
72611;SDS011;60655;52.182;4.474;2023-12-14T11:44:03;10.25;;;4.68;;
72611;SDS011;60655;52.182;4.474;2023-12-14T11:46:05;10.10;;;3.58;;
72611;SDS011;60655;52.182;4.474;2023-12-14T11:48:07;9.85;;;3.92;;
72611;SDS011;60655;52.182;4.474;2023-12-14T11:50:10;16.42;;;4.40;;
72611;SDS011;60655;52.182;4.474;2023-12-14T11:52:12;15.23;;;5.50;;
72611;SDS011;60655;52.182;4.474;2023-12-14T11:54:13;11.77;;;4.53;;
72611;SDS011;60655;52.182;4.474;2023-12-14T11:56:14;14.20;;;4.65;;
72611;SDS011;60655;52.182;4.474;2023-12-14T11:58:17;13.35;;;4.93;;
72611;SDS011;60655;52.182;4.474;2023-12-14T12:00:22;13.15;;;4.90;;
72611;SDS011;60655;52.182;4.474;2023-12-14T12:02:25;11.55;;;4.45;;
72611;SDS011;60655;52.182;4.474;2023-12-14T12:04:26;13.48;;;4.65;;
72611;SDS011;60655;52.182;4.474;2023-12-14T12:06:28;13.60;;;4.60;;
72611;SDS011;60655;52.182;4.474;2023-12-14T12:08:29;11.45;;;4.38;;
72611;SDS011;60655;52.182;4.474;2023-12-14T12:12:32;10.50;;;4.03;;
72611;SDS011;60655;52.182;4.474;2023-12-14T12:14:34;11.75;;;3.72;;
72611;SDS011;60655;52.182;4.474;2023-12-14T12:16:36;9.13;;;4.13;;
72611;SDS011;60655;52.182;4.474;2023-12-14T12:18:37;15.48;;;4.15;;
72611;SDS011;60655;52.182;4.474;2023-12-14T12:20:38;11.40;;;4.90;;
72611;SDS011;60655;52.182;4.474;2023-12-14T12:22:39;12.43;;;4.38;;
72611;SDS011;60655;52.182;4.474;2023-12-14T12:24:40;12.60;;;4.45;;
72611;SDS011;60655;52.182;4.474;2023-12-14T12:26:41;15.45;;;5.50;;
72611;SDS011;60655;52.182;4.474;2023-12-14T12:28:42;12.00;;;5.20;;
72611;SDS011;60655;52.182;4.474;2023-12-14T12:30:42;13.25;;;4.82;;
72611;SDS011;60655;52.182;4.474;2023-12-14T12:32:43;11.75;;;5.07;;
72611;SDS011;60655;52.182;4.474;2023-12-14T12:34:44;12.80;;;4.90;;
72611;SDS011;60655;52.182;4.474;2023-12-14T12:38:46;12.27;;;4.30;;
72611;SDS011;60655;52.182;4.474;2023-12-14T12:40:47;18.83;;;4.70;;
72611;SDS011;60655;52.182;4.474;2023-12-14T12:42:48;13.20;;;4.88;;
72611;SDS011;60655;52.182;4.474;2023-12-14T12:44:50;14.23;;;4.68;;